Time;durP1;ratioP1;P1;durP2;ratioP2;P2;SDS_P1;SDS_P2;PMS_P1;PMS_P2;Temp;Humidity;BMP_temperature;BMP_pressure;BME280_temperature;BME280_humidity;BME280_pressure;Samples;Min_cycle;Max_cycle;Signal;HPM_P1;HPM_P2
2021/12/24 16:14:16;;;;;;;3.30;2.77;;;;;;;;;;6129414;22;94486;-83
2021/12/24 16:17:03;;;;;;;4.07;3.33;;;;;;;;;;6154536;23;91918;-82
2021/12/24 16:26:57;;;;;;;4.70;3.83;;;;;;;;;;6156183;23;93721;-82
2021/12/24 16:29:48;;;;;;;4.67;4.20;;;;;;;;;;6154316;23;92076;-82
2021/12/24 16:32:41;;;;;;;3.93;3.57;;;;;;;;;;6152632;23;91956;-82
2021/12/24 16:35:29;;;;;;;4.90;4.40;;;;;;;;;;6151557;23;92040;-82
2021/12/24 16:38:50;;;;;;;4.80;4.30;;;;;;;;;;6154963;22;92267;-82
2021/12/24 16:41:41;;;;;;;3.77;3.47;;;;;;;;;;6134665;22;92008;-82
2021/12/24 16:45:03;;;;;;;3.10;2.80;;;;;;;;;;6155339;22;91415;-82
2021/12/24 16:47:50;;;;;;;4.90;4.17;;;;;;;;;;6153715;23;91983;-82
2021/12/24 16:50:47;;;;;;;4.70;4.30;;;;;;;;;;6153271;23;92098;-82
2021/12/24 16:53:33;;;;;;;6.03;5.43;;;;;;;;;;6151792;23;94432;-81
2021/12/24 16:56:41;;;;;;;5.07;4.67;;;;;;;;;;6150844;23;91874;-82
2021/12/24 16:59:27;;;;;;;4.03;3.73;;;;;;;;;;6151699;23;92342;-82
2021/12/24 17:02:17;;;;;;;4.90;4.50;;;;;;;;;;6150029;23;92383;-82
2021/12/24 17:05:04;;;;;;;5.07;4.60;;;;;;;;;;6149814;23;91995;-82
2021/12/24 17:08:02;;;;;;;4.83;4.43;;;;;;;;;;6151265;23;92072;-82
2021/12/24 17:10:48;;;;;;;4.77;4.37;;;;;;;;;;6150322;23;91989;-81
2021/12/24 17:13:40;;;;;;;4.77;4.37;;;;;;;;;;6151415;23;91258;-81
2021/12/24 17:16:35;;;;;;;4.43;4.13;;;;;;;;;;6151538;23;92172;-81
2021/12/24 17:19:22;;;;;;;5.30;4.90;;;;;;;;;;6150735;23;92042;-82
2021/12/24 17:22:16;;;;;;;5.80;5.40;;;;;;;;;;6148474;23;94414;-82
2021/12/24 17:25:04;;;;;;;5.80;5.40;;;;;;;;;;6153752;23;93763;-82
2021/12/24 17:28:01;;;;;;;5.87;5.47;;;;;;;;;;6152202;23;92369;-82
2021/12/24 17:30:49;;;;;;;5.83;5.33;;;;;;;;;;6150633;23;92119;-82
2021/12/24 17:33:41;;;;;;;6.37;5.87;;;;;;;;;;6132818;22;91995;-81
2021/12/24 17:36:27;;;;;;;3.93;3.63;;;;;;;;;;6149198;23;92001;-82
2021/12/24 17:39:15;;;;;;;3.60;3.23;;;;;;;;;;6150453;22;91976;-82
2021/12/24 17:42:02;;;;;;;3.37;3.07;;;;;;;;;;6153093;23;91395;-81
2021/12/24 17:44:51;;;;;;;2.90;2.70;;;;;;;;;;6149962;23;92511;-82
2021/12/24 17:47:38;;;;;;;2.60;2.40;;;;;;;;;;6150111;23;92049;-82
2021/12/24 17:53:52;;;;;;;3.30;3.00;;;;;;;;;;6150991;23;92210;-82
2021/12/24 17:56:58;;;;;;;3.10;2.67;;;;;;;;;;6148343;23;92284;-82
2021/12/24 17:59:45;;;;;;;2.10;1.90;;;;;;;;;;6149110;23;92080;-82
2021/12/24 18:02:39;;;;;;;2.03;1.80;;;;;;;;;;6149292;23;91943;-82
2021/12/24 18:05:25;;;;;;;3.87;2.70;;;;;;;;;;6147137;23;92339;-82
2021/12/24 18:08:20;;;;;;;3.47;3.17;;;;;;;;;;6147721;23;92109;-82
2021/12/24 18:46:06;;;;;;;3.00;2.23;;;;;;;;;;6118989;23;91357;-81
2021/12/24 18:49:05;;;;;;;2.67;2.47;;;;;;;;;;6119256;23;92034;-81
2021/12/24 18:51:52;;;;;;;4.13;2.90;;;;;;;;;;6117151;23;92066;-82
2021/12/24 18:54:49;;;;;;;2.70;2.43;;;;;;;;;;6117331;23;94482;-82
2021/12/24 18:57:35;;;;;;;3.07;2.80;;;;;;;;;;6117085;23;91626;-82
2021/12/24 19:00:25;;;;;;;3.47;3.17;;;;;;;;;;6118421;23;92612;-83
2021/12/24 19:03:12;;;;;;;3.67;2.90;;;;;;;;;;6117505;23;91825;-82
2021/12/24 19:06:09;;;;;;;2.57;2.37;;;;;;;;;;6125580;23;92268;-82
2021/12/24 19:08:55;;;;;;;2.93;2.53;;;;;;;;;;6118777;23;92148;-81
2021/12/24 19:11:47;;;;;;;2.20;2.00;;;;;;;;;;6119970;23;92323;-82
2021/12/24 19:14:34;;;;;;;1.87;1.70;;;;;;;;;;6119181;23;91426;-81
2021/12/24 19:17:51;;;;;;;2.07;1.97;;;;;;;;;;6117961;23;92085;-82
2021/12/24 19:20:38;;;;;;;2.90;2.57;;;;;;;;;;6119761;23;92269;-83
2021/12/24 19:23:52;;;;;;;3.30;3.00;;;;;;;;;;6117096;23;94986;-82
2021/12/24 19:26:39;;;;;;;3.40;3.10;;;;;;;;;;6120040;23;93875;-82
2021/12/24 19:29:26;;;;;;;2.67;2.47;;;;;;;;;;6119020;23;92058;-81
2021/12/24 19:32:14;;;;;;;2.37;2.17;;;;;;;;;;6119837;23;92083;-82
2021/12/24 19:35:12;;;;;;;1.60;1.50;;;;;;;;;;6119736;23;92846;-82
2021/12/24 19:37:59;;;;;;;2.10;1.90;;;;;;;;;;6118142;23;92220;-81
2021/12/24 19:40:54;;;;;;;6.90;2.30;;;;;;;;;;6117954;23;91731;-82
2021/12/24 20:23:28;;;;;;;6.00;5.50;;;;;;;;;;6119190;23;92237;-81
2021/12/24 20:26:15;;;;;;;7.17;6.57;;;;;;;;;;6118316;23;92327;-82
2021/12/24 20:29:03;;;;;;;6.80;6.20;;;;;;;;;;6116259;23;94487;-82
2021/12/24 20:31:49;;;;;;;7.57;6.97;;;;;;;;;;6117462;23;93895;-81
2021/12/24 20:34:39;;;;;;;8.30;7.50;;;;;;;;;;6117661;23;92088;-82
2021/12/24 20:37:26;;;;;;;8.20;7.50;;;;;;;;;;6120477;23;92140;-81
2021/12/24 20:40:22;;;;;;;8.63;7.87;;;;;;;;;;6115112;23;92042;-81
